createdAt,value
2019-05-03T00:00:11.996Z,0.00
2019-05-03T00:01:12.861Z,0.00
2019-05-03T00:02:12.332Z,0.00
2019-05-03T00:03:12.137Z,0.00
2019-05-03T00:04:12.124Z,0.00
2019-05-03T00:05:12.576Z,0.00
2019-05-03T00:06:12.178Z,0.00
2019-05-03T00:07:12.207Z,0.00
2019-05-03T00:08:12.696Z,0.00
2019-05-03T00:09:12.270Z,0.00
2019-05-03T00:10:12.858Z,0.00
2019-05-03T00:11:12.634Z,0.00
2019-05-03T00:12:12.733Z,0.00
2019-05-03T00:13:12.675Z,0.00
2019-05-03T00:14:12.513Z,0.00
2019-05-03T00:15:12.452Z,0.00
2019-05-03T00:16:12.482Z,0.00
2019-05-03T00:17:12.513Z,0.00
2019-05-03T00:18:12.545Z,0.00
2019-05-03T00:19:12.775Z,0.00
2019-05-03T00:20:12.604Z,0.00
2019-05-03T00:21:12.635Z,0.00
2019-05-03T00:22:12.672Z,0.00
2019-05-03T00:23:12.695Z,0.00
2019-05-03T00:24:12.726Z,0.00
2019-05-03T00:25:12.965Z,0.00
2019-05-03T00:26:12.787Z,0.00
2019-05-03T00:27:12.816Z,0.00
2019-05-03T00:28:13.287Z,0.00
2019-05-03T00:29:12.879Z,0.00
2019-05-03T00:30:12.919Z,0.00
2019-05-03T00:31:12.938Z,0.00
2019-05-03T00:32:12.978Z,0.00
2019-05-03T00:33:13.000Z,0.00
2019-05-03T00:34:13.033Z,0.00
2019-05-03T00:35:13.060Z,0.00
2019-05-03T00:36:13.097Z,0.00
2019-05-03T00:37:13.121Z,0.00
2019-05-03T00:38:13.152Z,0.00
2019-05-03T00:39:13.181Z,0.00
2019-05-03T00:40:13.213Z,0.00
2019-05-03T00:41:13.262Z,0.00
2019-05-03T00:42:13.276Z,0.00
2019-05-03T00:43:13.304Z,0.00
2019-05-03T00:44:13.334Z,0.00
2019-05-03T00:45:13.368Z,0.00
2019-05-03T00:46:13.395Z,0.00
2019-05-03T00:47:13.424Z,0.00
2019-05-03T00:48:13.456Z,0.00
2019-05-03T00:49:13.486Z,0.00
2019-05-03T00:50:13.817Z,0.00
2019-05-03T00:51:13.546Z,0.00
2019-05-03T00:52:13.577Z,0.00
2019-05-03T00:53:13.608Z,0.00
2019-05-03T00:54:13.639Z,0.00
2019-05-03T00:55:17.041Z,0.00
2019-05-03T00:56:13.698Z,0.00
2019-05-03T00:57:13.728Z,0.00
2019-05-03T00:58:13.761Z,0.00
2019-05-03T00:59:13.799Z,0.00
2019-05-03T01:00:13.821Z,0.00
2019-05-03T01:01:13.852Z,0.00
2019-05-03T01:02:13.882Z,0.00
2019-05-03T01:03:13.912Z,0.00
2019-05-03T01:04:13.942Z,0.00
2019-05-03T01:05:13.974Z,0.00
2019-05-03T01:06:14.004Z,0.00
2019-05-03T01:07:14.033Z,0.00
2019-05-03T01:08:14.065Z,0.00
2019-05-03T01:09:14.095Z,0.00
2019-05-03T01:10:14.124Z,0.00
2019-05-03T01:11:14.154Z,0.00
2019-05-03T01:12:14.186Z,0.00
2019-05-03T01:13:14.216Z,0.00
2019-05-03T01:14:14.246Z,0.00
2019-05-03T01:15:14.275Z,0.00
2019-05-03T01:16:14.307Z,0.00
2019-05-03T01:17:14.338Z,0.00
2019-05-03T01:18:14.367Z,0.00
2019-05-03T01:19:14.397Z,0.00
2019-05-03T01:20:14.427Z,0.00
2019-05-03T01:21:14.458Z,0.00
2019-05-03T01:22:14.488Z,0.00
2019-05-03T01:23:14.517Z,0.00
2019-05-03T01:24:14.552Z,0.00
2019-05-03T01:25:14.580Z,0.00
2019-05-03T01:26:14.610Z,0.00
2019-05-03T01:27:14.639Z,0.00
2019-05-03T01:28:14.672Z,0.00
2019-05-03T01:29:14.701Z,0.00
2019-05-03T01:30:14.736Z,0.00
2019-05-03T01:31:14.761Z,0.00
2019-05-03T01:32:14.792Z,0.00
2019-05-03T01:33:14.823Z,0.00
2019-05-03T01:34:14.853Z,0.00
2019-05-03T01:35:14.884Z,0.00
2019-05-03T01:36:14.913Z,0.00
2019-05-03T01:37:14.945Z,0.00
2019-05-03T01:38:14.975Z,0.00
2019-05-03T01:39:15.006Z,0.00
2019-05-03T01:40:15.037Z,0.00
2019-05-03T01:41:15.067Z,0.00
2019-05-03T01:42:15.099Z,0.00
2019-05-03T01:43:15.126Z,0.00
2019-05-03T01:44:15.157Z,0.00
2019-05-03T01:45:15.194Z,0.00
2019-05-03T01:46:15.221Z,0.00
2019-05-03T01:47:15.248Z,0.00
2019-05-03T01:48:15.279Z,0.00
2019-05-03T01:49:15.309Z,0.00
2019-05-03T01:50:15.340Z,0.00
2019-05-03T01:51:15.371Z,0.00
2019-05-03T01:52:15.401Z,0.00
2019-05-03T01:53:15.431Z,0.00
2019-05-03T01:54:15.463Z,0.00
2019-05-03T01:55:16.070Z,0.00
2019-05-03T01:56:15.522Z,0.00
2019-05-03T01:57:15.554Z,0.00
2019-05-03T01:58:15.584Z,0.00
2019-05-03T01:59:15.617Z,0.00
2019-05-03T02:00:15.644Z,0.00
2019-05-03T02:01:15.676Z,0.00
2019-05-03T02:02:15.706Z,0.00
2019-05-03T02:03:15.737Z,0.00
2019-05-03T02:04:15.766Z,0.00
2019-05-03T02:05:15.797Z,0.00
2019-05-03T02:06:15.830Z,0.00
2019-05-03T02:07:15.857Z,0.00
2019-05-03T02:08:15.889Z,0.00
2019-05-03T02:09:15.920Z,0.00
2019-05-03T02:10:15.949Z,0.00
2019-05-03T02:11:15.980Z,0.00
2019-05-03T02:12:16.010Z,0.00
2019-05-03T02:13:16.039Z,0.00
2019-05-03T02:14:16.071Z,0.00
2019-05-03T02:15:16.101Z,0.00
2019-05-03T02:16:16.131Z,0.00
2019-05-03T02:17:16.162Z,0.00
2019-05-03T02:18:16.192Z,0.00
2019-05-03T02:19:16.222Z,0.00
2019-05-03T02:20:16.253Z,0.00
2019-05-03T02:21:16.284Z,0.00
2019-05-03T02:22:16.313Z,0.00
2019-05-03T02:23:16.343Z,0.00
2019-05-03T02:24:16.376Z,0.00
2019-05-03T02:25:16.406Z,0.00
2019-05-03T02:26:16.435Z,0.00
2019-05-03T02:27:16.465Z,0.00
2019-05-03T02:28:16.497Z,0.00
2019-05-03T02:29:16.526Z,0.00
2019-05-03T02:30:16.565Z,0.00
2019-05-03T02:31:16.586Z,0.00
2019-05-03T02:32:16.621Z,0.00
2019-05-03T02:33:16.656Z,0.00
2019-05-03T02:34:16.679Z,0.00
2019-05-03T02:35:16.718Z,0.00
2019-05-03T02:36:16.737Z,0.00
2019-05-03T02:37:16.773Z,0.00
2019-05-03T02:38:16.799Z,0.00
2019-05-03T02:39:16.827Z,0.00
2019-05-03T02:40:20.414Z,0.00
2019-05-03T02:41:16.892Z,0.00
2019-05-03T02:42:16.919Z,0.00
2019-05-03T02:43:16.947Z,0.00
2019-05-03T02:44:16.978Z,0.00
2019-05-03T02:45:17.024Z,0.00
2019-05-03T02:46:17.132Z,0.00
2019-05-03T02:47:17.068Z,0.00
2019-05-03T02:48:17.100Z,0.00
2019-05-03T02:49:17.139Z,0.00
2019-05-03T02:50:17.162Z,0.00
2019-05-03T02:51:17.190Z,0.00
2019-05-03T02:52:17.221Z,0.00
2019-05-03T02:53:17.251Z,0.00
2019-05-03T02:54:17.287Z,0.00
2019-05-03T02:55:17.310Z,0.00
2019-05-03T02:56:22.149Z,0.00
2019-05-03T02:57:17.371Z,0.00
2019-05-03T02:58:17.459Z,0.00
2019-05-03T02:59:17.429Z,0.00
2019-05-03T03:00:17.460Z,0.00
2019-05-03T03:01:17.491Z,0.00
2019-05-03T03:02:17.522Z,0.00
2019-05-03T03:03:17.556Z,0.00
2019-05-03T03:04:17.581Z,0.00
2019-05-03T03:05:17.622Z,0.00
2019-05-03T03:06:17.647Z,0.00
2019-05-03T03:07:17.688Z,0.00
2019-05-03T03:08:17.703Z,0.00
2019-05-03T03:09:17.731Z,0.00
2019-05-03T03:10:17.763Z,0.00
2019-05-03T03:11:17.802Z,0.00
2019-05-03T03:12:17.820Z,0.00
2019-05-03T03:13:17.855Z,0.00
2019-05-03T03:14:17.889Z,0.00
2019-05-03T03:15:17.915Z,0.00
2019-05-03T03:16:20.655Z,0.00
2019-05-03T03:17:17.972Z,0.00
2019-05-03T03:18:18.002Z,0.00
2019-05-03T03:19:18.033Z,0.00
2019-05-03T03:20:18.067Z,0.00
2019-05-03T03:21:18.095Z,0.00
2019-05-03T03:22:18.136Z,0.00
2019-05-03T03:23:18.252Z,0.00
2019-05-03T03:24:18.209Z,0.00
2019-05-03T03:25:18.221Z,0.00
2019-05-03T03:26:33.296Z,0.00
2019-05-03T03:27:18.280Z,0.00
2019-05-03T03:28:18.302Z,0.00
2019-05-03T03:29:18.340Z,0.00
2019-05-03T03:30:18.364Z,0.00
2019-05-03T03:31:18.393Z,0.00
2019-05-03T03:32:19.243Z,0.00
2019-05-03T03:33:18.464Z,0.00
2019-05-03T03:34:18.834Z,0.00
2019-05-03T03:35:21.133Z,0.00
2019-05-03T03:36:50.472Z,0.00
2019-05-03T03:37:18.573Z,0.00
2019-05-03T03:38:18.603Z,0.00
2019-05-03T03:39:18.630Z,0.00
2019-05-03T03:40:18.668Z,0.00
2019-05-03T03:41:18.691Z,0.00
2019-05-03T03:42:18.721Z,0.00
2019-05-03T03:43:18.753Z,0.00
2019-05-03T03:44:18.794Z,0.00
2019-05-03T03:45:18.813Z,0.00
2019-05-03T03:46:18.840Z,0.00
2019-05-03T03:47:18.871Z,0.00
2019-05-03T03:48:18.902Z,0.00
2019-05-03T03:49:18.937Z,0.00
2019-05-03T03:50:18.964Z,0.00
2019-05-03T03:51:18.991Z,0.00
2019-05-03T03:52:19.020Z,0.00
2019-05-03T03:53:19.051Z,0.00
2019-05-03T03:54:19.082Z,4.00
2019-05-03T03:55:19.110Z,4.00
2019-05-03T03:56:19.140Z,0.00
2019-05-03T03:57:19.178Z,4.00
2019-05-03T03:58:22.822Z,4.00
2019-05-03T03:59:19.228Z,4.00
2019-05-03T04:00:19.264Z,8.00
2019-05-03T04:01:19.290Z,8.00
2019-05-03T04:02:19.320Z,12.00
2019-05-03T04:03:19.348Z,12.00
2019-05-03T04:04:19.379Z,16.00
2019-05-03T04:05:19.408Z,16.00
2019-05-03T04:06:19.442Z,16.00
2019-05-03T04:07:19.470Z,24.00
2019-05-03T04:08:19.499Z,24.00
2019-05-03T04:09:19.527Z,28.00
2019-05-03T04:10:19.559Z,32.00
2019-05-03T04:11:19.588Z,36.00
2019-05-03T04:12:19.617Z,44.00
2019-05-03T04:13:19.648Z,44.00
2019-05-03T04:14:19.680Z,48.00
2019-05-03T04:15:19.708Z,48.00
2019-05-03T04:16:21.072Z,52.00
2019-05-03T04:17:19.768Z,52.00
2019-05-03T04:18:19.799Z,56.00
2019-05-03T04:19:19.830Z,68.00
2019-05-03T04:20:19.868Z,76.00
2019-05-03T04:21:19.905Z,68.00
2019-05-03T04:22:19.917Z,64.00
2019-05-03T04:23:19.945Z,60.00
2019-05-03T04:24:19.977Z,64.00
2019-05-03T04:25:20.008Z,68.00
2019-05-03T04:26:20.037Z,68.00
2019-05-03T04:27:24.412Z,76.00
2019-05-03T04:28:20.098Z,84.00
2019-05-03T04:29:20.126Z,104.00
2019-05-03T04:30:20.158Z,112.00
2019-05-03T04:31:20.188Z,116.00
2019-05-03T04:32:20.217Z,116.00
2019-05-03T04:33:20.246Z,120.00
2019-05-03T04:34:20.278Z,116.00
2019-05-03T04:35:20.305Z,112.00
2019-05-03T04:36:20.340Z,112.00
2019-05-03T04:37:20.377Z,132.00
2019-05-03T04:38:20.397Z,140.00
2019-05-03T04:39:20.527Z,160.00
2019-05-03T04:40:20.459Z,180.00
2019-05-03T04:41:20.487Z,188.00
2019-05-03T04:42:20.520Z,184.00
2019-05-03T04:43:20.546Z,184.00
2019-05-03T04:44:20.577Z,220.00
2019-05-03T04:45:20.606Z,256.00
2019-05-03T04:46:20.637Z,240.00
2019-05-03T04:47:20.670Z,236.00
2019-05-03T04:48:20.698Z,240.00
2019-05-03T04:49:20.727Z,204.00
2019-05-03T04:50:20.756Z,188.00
2019-05-03T04:51:20.786Z,196.00
2019-05-03T04:52:20.818Z,196.00
2019-05-03T04:53:20.847Z,216.00
2019-05-03T04:54:20.881Z,240.00
2019-05-03T04:55:20.907Z,276.00
2019-05-03T04:56:20.937Z,328.00
2019-05-03T04:57:35.083Z,316.00
2019-05-03T04:58:20.998Z,336.00
2019-05-03T04:59:21.041Z,400.00
2019-05-03T05:00:21.057Z,420.00
2019-05-03T05:01:21.090Z,416.00
2019-05-03T05:02:21.125Z,412.00
2019-05-03T05:03:21.148Z,392.00
2019-05-03T05:04:21.178Z,384.00
2019-05-03T05:05:21.210Z,344.00
2019-05-03T05:06:21.258Z,340.00
2019-05-03T05:07:21.271Z,384.00
2019-05-03T05:08:21.299Z,444.00
2019-05-03T05:09:21.337Z,496.00
2019-05-03T05:10:21.358Z,420.00
2019-05-03T05:11:21.395Z,372.00
2019-05-03T05:12:21.421Z,316.00
2019-05-03T05:13:21.449Z,308.00
2019-05-03T05:14:21.477Z,296.00
2019-05-03T05:15:21.508Z,324.00
2019-05-03T05:16:21.538Z,420.00
2019-05-03T05:17:21.568Z,416.00
2019-05-03T05:18:21.597Z,384.00
2019-05-03T05:19:21.626Z,376.00
2019-05-03T05:20:21.657Z,368.00
2019-05-03T05:21:21.687Z,432.00
2019-05-03T05:22:21.717Z,536.00
2019-05-03T05:23:21.747Z,616.00
2019-05-03T05:24:21.778Z,700.00
2019-05-03T05:25:21.806Z,656.00
2019-05-03T05:26:21.836Z,704.00
2019-05-03T05:27:21.865Z,680.00
2019-05-03T05:28:21.896Z,604.00
2019-05-03T05:29:21.928Z,612.00
2019-05-03T05:30:21.957Z,752.00
2019-05-03T05:31:21.986Z,896.00
2019-05-03T05:32:22.018Z,1020.00
2019-05-03T05:33:22.049Z,1092.00
2019-05-03T05:34:22.075Z,1112.00
2019-05-03T05:35:22.104Z,1044.00
2019-05-03T05:36:22.133Z,1232.00
2019-05-03T05:37:22.164Z,1452.00
2019-05-03T05:38:22.195Z,1392.00
2019-05-03T05:39:24.318Z,1240.00
2019-05-03T05:40:24.435Z,1300.00
2019-05-03T05:41:24.281Z,1632.00
2019-05-03T05:42:22.314Z,1584.00
2019-05-03T05:43:22.343Z,1444.00
2019-05-03T05:44:22.374Z,1408.00
2019-05-03T05:45:24.422Z,1364.00
2019-05-03T05:46:22.442Z,1676.00
2019-05-03T05:47:22.465Z,1792.00
2019-05-03T05:48:24.493Z,1736.00
2019-05-03T05:49:22.525Z,1620.00
2019-05-03T05:50:22.554Z,1716.00
2019-05-03T05:51:22.584Z,1716.00
2019-05-03T05:52:24.410Z,1624.00
2019-05-03T05:53:22.642Z,1680.00
2019-05-03T05:54:24.527Z,1724.00
2019-05-03T05:55:22.703Z,1804.00
2019-05-03T05:56:24.535Z,1736.00
2019-05-03T05:57:22.765Z,1388.00
2019-05-03T05:58:25.388Z,1332.00
2019-05-03T05:59:24.798Z,1616.00
2019-05-03T06:00:22.855Z,1688.00
2019-05-03T06:01:24.895Z,1708.00
2019-05-03T06:02:22.914Z,1752.00
2019-05-03T06:03:22.943Z,1876.00
2019-05-03T06:04:24.561Z,1844.00
2019-05-03T06:05:25.049Z,1664.00
2019-05-03T06:06:24.403Z,1368.00
2019-05-03T06:07:24.842Z,1288.00
2019-05-03T06:08:25.003Z,1280.00
2019-05-03T06:09:23.123Z,1404.00
2019-05-03T06:10:24.878Z,1620.00
2019-05-03T06:11:23.182Z,1544.00
2019-05-03T06:12:25.049Z,1488.00
2019-05-03T06:13:23.244Z,1380.00
2019-05-03T06:14:24.519Z,1360.00
2019-05-03T06:15:25.043Z,1772.00
2019-05-03T06:16:24.546Z,2068.00
2019-05-03T06:17:24.545Z,1988.00
2019-05-03T06:18:25.066Z,1644.00
2019-05-03T06:19:25.285Z,1504.00
2019-05-03T06:20:24.597Z,1476.00
2019-05-03T06:21:25.067Z,1204.00
2019-05-03T06:22:25.534Z,1132.00
2019-05-03T06:23:24.806Z,1356.00
2019-05-03T06:24:24.951Z,1808.00
2019-05-03T06:25:26.590Z,2148.00
2019-05-03T06:26:25.287Z,2184.00
2019-05-03T06:27:24.451Z,2124.00
2019-05-03T06:28:25.194Z,1544.00
2019-05-03T06:29:24.757Z,1240.00
2019-05-03T06:30:24.822Z,1440.00
2019-05-03T06:31:25.256Z,1508.00
2019-05-03T06:32:25.399Z,1460.00
2019-05-03T06:33:24.487Z,1612.00
2019-05-03T06:34:25.155Z,1584.00
2019-05-03T06:35:24.400Z,1692.00
2019-05-03T06:36:24.379Z,1704.00
2019-05-03T06:37:25.151Z,1668.00
2019-05-03T06:38:24.434Z,1576.00
2019-05-03T06:39:24.960Z,1540.00
2019-05-03T06:40:25.265Z,1624.00
2019-05-03T06:41:25.090Z,1756.00
2019-05-03T06:42:25.475Z,2160.00
2019-05-03T06:43:24.547Z,2384.00
2019-05-03T06:44:28.362Z,2552.00
2019-05-03T06:45:25.114Z,2736.00
2019-05-03T06:46:30.230Z,3256.00
2019-05-03T06:47:25.340Z,3504.00
2019-05-03T06:48:28.124Z,3700.00
2019-05-03T06:49:25.550Z,3548.00
2019-05-03T06:50:28.715Z,3752.00
2019-05-03T06:51:24.863Z,3888.00
2019-05-03T06:52:27.724Z,3680.00
2019-05-03T06:53:25.458Z,3412.00
2019-05-03T06:54:28.364Z,3124.00
2019-05-03T06:55:24.826Z,2716.00
2019-05-03T06:56:29.020Z,2460.00
2019-05-03T06:57:25.331Z,2164.00
2019-05-03T06:58:33.131Z,2048.00
2019-05-03T06:59:25.062Z,1800.00
2019-05-03T07:00:24.907Z,1544.00
2019-05-03T07:01:25.305Z,1508.00
2019-05-03T07:02:25.302Z,1468.00
2019-05-03T07:03:25.222Z,1568.00
2019-05-03T07:04:24.773Z,1552.00
2019-05-03T07:05:25.161Z,1704.00
2019-05-03T07:06:34.575Z,1760.00
2019-05-03T07:07:27.925Z,1800.00
2019-05-03T07:08:25.311Z,2064.00
2019-05-03T07:09:25.076Z,2408.00
2019-05-03T07:10:25.016Z,2628.00
2019-05-03T07:11:24.978Z,2896.00
2019-05-03T07:12:25.125Z,3244.00
2019-05-03T07:13:25.500Z,3588.00
2019-05-03T07:14:25.068Z,3788.00
2019-05-03T07:15:25.385Z,4004.00
2019-05-03T07:16:25.445Z,4156.00
2019-05-03T07:17:25.156Z,4416.00
2019-05-03T07:18:25.187Z,4892.00
2019-05-03T07:19:25.220Z,5304.00
2019-05-03T07:20:25.673Z,5548.00
2019-05-03T07:21:25.277Z,5532.00
2019-05-03T07:22:25.305Z,4928.00
2019-05-03T07:23:25.334Z,4516.00
2019-05-03T07:24:25.365Z,4988.00
2019-05-03T07:25:25.868Z,5620.00
2019-05-03T07:26:25.558Z,6604.00
2019-05-03T07:27:25.452Z,6776.00
2019-05-03T07:28:25.501Z,6384.00
2019-05-03T07:29:25.646Z,6864.00
2019-05-03T07:30:25.544Z,6900.00
2019-05-03T07:31:25.702Z,6428.00
2019-05-03T07:32:25.603Z,6188.00
2019-05-03T07:33:25.634Z,5968.00
2019-05-03T07:34:25.682Z,5924.00
2019-05-03T07:35:25.702Z,5824.00
2019-05-03T07:36:28.269Z,6372.00
2019-05-03T07:37:25.753Z,6164.00
2019-05-03T07:38:25.785Z,5492.00
2019-05-03T07:39:25.814Z,4672.00
2019-05-03T07:40:25.848Z,4792.00
2019-05-03T07:41:27.282Z,5040.00
2019-05-03T07:42:25.904Z,5236.00
2019-05-03T07:43:25.937Z,5764.00
2019-05-03T07:44:25.965Z,5496.00
2019-05-03T07:45:25.996Z,5184.00
2019-05-03T07:46:26.025Z,5248.00
2019-05-03T07:47:26.054Z,5220.00
2019-05-03T07:48:26.085Z,4720.00
2019-05-03T07:49:26.116Z,4248.00
2019-05-03T07:50:26.186Z,4068.00
2019-05-03T07:51:26.175Z,3960.00
2019-05-03T07:52:26.209Z,4108.00
2019-05-03T07:53:26.336Z,4284.00
2019-05-03T07:54:26.265Z,3848.00
2019-05-03T07:55:26.295Z,3812.00
2019-05-03T07:56:26.326Z,4488.00
2019-05-03T07:57:26.356Z,4480.00
2019-05-03T07:58:26.388Z,4976.00
2019-05-03T07:59:26.414Z,4900.00
2019-05-03T08:00:26.497Z,4896.00
2019-05-03T08:01:26.476Z,4792.00
2019-05-03T08:02:27.467Z,4492.00
2019-05-03T08:03:26.537Z,5216.00
2019-05-03T08:04:26.565Z,5284.00
2019-05-03T08:05:26.596Z,5940.00
2019-05-03T08:06:26.626Z,5596.00
2019-05-03T08:07:26.654Z,5928.00
2019-05-03T08:08:26.686Z,5736.00
2019-05-03T08:09:26.717Z,5176.00
2019-05-03T08:10:26.746Z,4896.00
2019-05-03T08:11:26.779Z,4816.00
2019-05-03T08:12:26.813Z,4996.00
2019-05-03T08:13:26.840Z,5260.00
2019-05-03T08:14:26.866Z,5416.00
2019-05-03T08:15:26.896Z,5096.00
2019-05-03T08:16:26.927Z,4788.00
2019-05-03T08:17:26.956Z,5340.00
2019-05-03T08:18:26.989Z,5448.00
2019-05-03T08:19:27.276Z,4612.00
2019-05-03T08:20:27.046Z,4600.00
2019-05-03T08:21:27.077Z,4524.00
2019-05-03T08:22:27.108Z,4036.00
2019-05-03T08:23:30.163Z,4012.00
2019-05-03T08:24:27.168Z,4452.00
2019-05-03T08:25:27.214Z,4236.00
2019-05-03T08:26:27.236Z,4260.00
2019-05-03T08:27:27.265Z,4640.00
2019-05-03T08:28:27.287Z,4536.00
2019-05-03T08:29:27.319Z,5400.00
2019-05-03T08:30:27.349Z,6988.00
2019-05-03T08:31:27.387Z,7872.00
2019-05-03T08:32:27.409Z,7396.00
2019-05-03T08:33:27.439Z,7724.00
2019-05-03T08:34:29.576Z,8332.00
2019-05-03T08:35:27.498Z,8904.00
2019-05-03T08:36:27.528Z,8424.00
2019-05-03T08:37:28.084Z,8488.00
2019-05-03T08:38:27.594Z,8736.00
2019-05-03T08:39:27.618Z,8576.00
2019-05-03T08:40:27.651Z,8864.00
2019-05-03T08:41:27.680Z,8524.00
2019-05-03T08:42:27.712Z,7860.00
2019-05-03T08:43:27.741Z,7524.00
2019-05-03T08:44:27.772Z,6856.00
2019-05-03T08:45:27.816Z,5816.00
2019-05-03T08:46:27.841Z,5380.00
2019-05-03T08:47:27.864Z,5168.00
2019-05-03T08:48:27.893Z,5192.00
2019-05-03T08:49:27.929Z,5728.00
2019-05-03T08:50:27.957Z,5260.00
2019-05-03T08:51:27.986Z,4652.00
2019-05-03T08:52:28.018Z,5308.00
2019-05-03T08:53:28.049Z,6164.00
2019-05-03T08:54:28.082Z,5536.00
2019-05-03T08:55:31.150Z,5432.00
2019-05-03T08:56:28.141Z,5848.00
2019-05-03T08:57:28.170Z,6720.00
2019-05-03T08:58:28.202Z,7768.00
2019-05-03T08:59:32.271Z,8496.00
2019-05-03T09:00:28.263Z,9344.00
2019-05-03T09:01:28.294Z,9956.00
2019-05-03T09:02:28.335Z,10056.00
2019-05-03T09:03:28.360Z,10352.00
2019-05-03T09:04:37.186Z,10768.00
2019-05-03T09:05:28.419Z,11872.00
2019-05-03T09:06:28.450Z,12596.00
2019-05-03T09:07:28.478Z,12560.00
2019-05-03T09:08:28.512Z,12284.00
2019-05-03T09:09:28.540Z,11596.00
2019-05-03T09:10:28.572Z,10764.00
2019-05-03T09:11:33.676Z,10500.00
2019-05-03T09:12:28.635Z,10952.00
2019-05-03T09:13:28.666Z,10604.00
2019-05-03T09:14:41.460Z,9864.00
2019-05-03T09:15:28.727Z,9300.00
2019-05-03T09:16:28.760Z,8932.00
2019-05-03T09:17:28.792Z,8352.00
2019-05-03T09:18:28.824Z,7896.00
2019-05-03T09:19:28.874Z,7912.00
2019-05-03T09:20:28.886Z,8056.00
2019-05-03T09:21:28.917Z,8456.00
2019-05-03T09:22:28.967Z,8848.00
2019-05-03T09:23:28.990Z,8668.00
2019-05-03T09:24:29.010Z,7940.00
2019-05-03T09:25:29.043Z,7368.00
2019-05-03T09:26:29.725Z,7532.00
2019-05-03T09:27:29.105Z,8372.00
2019-05-03T09:28:29.343Z,9820.00
2019-05-03T09:29:40.233Z,10812.00
2019-05-03T09:30:29.201Z,10908.00
2019-05-03T09:31:29.232Z,10680.00
2019-05-03T09:32:29.264Z,10748.00
2019-05-03T09:33:29.299Z,11396.00
2019-05-03T09:34:29.328Z,12092.00
2019-05-03T09:35:33.076Z,12492.00
2019-05-03T09:36:29.391Z,12584.00
2019-05-03T09:37:29.423Z,12460.00
2019-05-03T09:38:29.456Z,13124.00
2019-05-03T09:39:29.487Z,14336.00
2019-05-03T09:40:29.517Z,17024.00
2019-05-03T09:41:29.550Z,20640.00
2019-05-03T09:42:29.914Z,24096.00
2019-05-03T09:43:29.614Z,27712.00
2019-05-03T09:44:29.647Z,30272.00
2019-05-03T09:45:29.680Z,29056.00
2019-05-03T09:46:29.713Z,26336.00
2019-05-03T09:47:29.744Z,27840.00
2019-05-03T09:48:29.779Z,34208.00
2019-05-03T09:49:29.810Z,34240.00
2019-05-03T09:50:29.843Z,32320.00
2019-05-03T09:51:29.902Z,27232.00
2019-05-03T09:52:29.964Z,25408.00
2019-05-03T09:53:29.945Z,24928.00
2019-05-03T09:54:29.977Z,19488.00
2019-05-03T09:55:30.036Z,15856.00
2019-05-03T09:56:30.070Z,13988.00
2019-05-03T09:57:30.100Z,13380.00
2019-05-03T09:58:30.118Z,12800.00
2019-05-03T09:59:30.146Z,12240.00
2019-05-03T10:00:30.180Z,12492.00
2019-05-03T10:01:30.216Z,13112.00
2019-05-03T10:02:30.251Z,14184.00
2019-05-03T10:03:30.282Z,16184.00
2019-05-03T10:04:30.317Z,30464.00
2019-05-03T10:05:30.353Z,22720.00
2019-05-03T10:06:30.388Z,29376.00
2019-05-03T10:07:30.419Z,30912.00
2019-05-03T10:08:30.455Z,33376.00
2019-05-03T10:09:30.894Z,31200.00
2019-05-03T10:10:30.523Z,30496.00
2019-05-03T10:11:30.571Z,30048.00
2019-05-03T10:12:30.591Z,31680.00
2019-05-03T10:13:30.629Z,35392.00
2019-05-03T10:14:33.284Z,31328.00
2019-05-03T10:15:30.713Z,28352.00
2019-05-03T10:16:30.746Z,26016.00
2019-05-03T10:17:30.769Z,24064.00
2019-05-03T10:18:30.803Z,21536.00
2019-05-03T10:19:38.674Z,19168.00
2019-05-03T10:20:30.874Z,16288.00
2019-05-03T10:21:30.910Z,13944.00
2019-05-03T10:22:30.943Z,12908.00
2019-05-03T10:23:30.981Z,12460.00
2019-05-03T10:24:31.086Z,12404.00
2019-05-03T10:25:31.052Z,12820.00
2019-05-03T10:26:31.212Z,13768.00
2019-05-03T10:27:31.120Z,15856.00
2019-05-03T10:28:31.155Z,22112.00
2019-05-03T10:29:31.191Z,29696.00
2019-05-03T10:30:31.228Z,29792.00
2019-05-03T10:31:31.261Z,59872.00
2019-05-03T10:32:31.298Z,57120.00
2019-05-03T10:33:31.333Z,79232.00
2019-05-03T10:34:31.377Z,70048.00
2019-05-03T10:35:31.405Z,51840.00
2019-05-03T10:36:31.440Z,40768.00
2019-05-03T10:37:31.477Z,49856.00
2019-05-03T10:38:31.514Z,41568.00
2019-05-03T10:39:31.552Z,39712.00
2019-05-03T10:40:31.588Z,46656.00
2019-05-03T10:41:31.626Z,138208.00
2019-05-03T10:42:31.665Z,130304.00
2019-05-03T10:43:31.702Z,127008.00
2019-05-03T10:44:31.740Z,121856.00
2019-05-03T10:45:31.781Z,126912.00
2019-05-03T10:46:31.819Z,59840.00
2019-05-03T10:47:31.859Z,34304.00
2019-05-03T10:48:31.899Z,36576.00
2019-05-03T10:49:31.941Z,120352.00
2019-05-03T10:50:31.981Z,124256.00
2019-05-03T10:51:32.022Z,124256.00
2019-05-03T10:52:35.697Z,120064.00
2019-05-03T10:53:32.108Z,113216.00
2019-05-03T10:54:32.150Z,119968.00
2019-05-03T10:55:32.190Z,119040.00
2019-05-03T10:56:35.636Z,122208.00
2019-05-03T10:57:32.278Z,117920.00
2019-05-03T10:58:32.322Z,92704.00
2019-05-03T10:59:32.365Z,104384.00
2019-05-03T11:00:46.178Z,104096.00
2019-05-03T11:01:32.456Z,110848.00
2019-05-03T11:02:34.929Z,119072.00
2019-05-03T11:03:34.324Z,120960.00
2019-05-03T11:04:33.582Z,118144.00
2019-05-03T11:05:34.692Z,116672.00
2019-05-03T11:06:33.512Z,117248.00
2019-05-03T11:07:34.516Z,113856.00
2019-05-03T11:08:32.778Z,110144.00
2019-05-03T11:09:47.586Z,24480.00
2019-05-03T11:10:32.871Z,25568.00
2019-05-03T11:11:35.016Z,41504.00
2019-05-03T11:12:34.692Z,111936.00
2019-05-03T11:13:34.869Z,109216.00
2019-05-03T11:14:35.063Z,107968.00
2019-05-03T11:15:34.964Z,108512.00
2019-05-03T11:16:35.179Z,113664.00
2019-05-03T11:17:34.790Z,113152.00
2019-05-03T11:18:34.592Z,48192.00
2019-05-03T11:19:34.736Z,114016.00
2019-05-03T11:20:34.593Z,111424.00
2019-05-03T11:21:34.784Z,35008.00
2019-05-03T11:22:34.958Z,42720.00
2019-05-03T11:23:34.695Z,27616.00
2019-05-03T11:24:34.900Z,123744.00
2019-05-03T11:25:34.477Z,58272.00
2019-05-03T11:26:35.008Z,30464.00
2019-05-03T11:27:35.362Z,87008.00
2019-05-03T11:28:35.349Z,127456.00
2019-05-03T11:29:35.541Z,25856.00
2019-05-03T11:30:35.589Z,27712.00
2019-05-03T11:31:35.405Z,41760.00
2019-05-03T11:32:35.291Z,123104.00
2019-05-03T11:33:35.341Z,129600.00
2019-05-03T11:34:35.440Z,125856.00
2019-05-03T11:35:35.109Z,27072.00
2019-05-03T11:36:34.863Z,29984.00
2019-05-03T11:37:34.730Z,45440.00
2019-05-03T11:38:34.951Z,28704.00
2019-05-03T11:39:34.505Z,29536.00
2019-05-03T11:40:34.660Z,115040.00
2019-05-03T11:41:35.855Z,32960.00
2019-05-03T11:42:35.347Z,123968.00
2019-05-03T11:43:34.997Z,124800.00
2019-05-03T11:44:36.209Z,34528.00
2019-05-03T11:45:35.405Z,129920.00
2019-05-03T11:46:35.454Z,123936.00
2019-05-03T11:47:34.882Z,122560.00
2019-05-03T11:48:34.920Z,124288.00
2019-05-03T11:49:34.970Z,124768.00
2019-05-03T11:50:34.879Z,34016.00
2019-05-03T11:51:35.346Z,26912.00
2019-05-03T11:52:35.563Z,27136.00
2019-05-03T11:53:35.622Z,125184.00
2019-05-03T11:54:35.914Z,129312.00
2019-05-03T11:55:35.346Z,128800.00
2019-05-03T11:56:35.936Z,126880.00
2019-05-03T11:58:35.039Z,125056.00
2019-05-03T11:59:35.311Z,125504.00
2019-05-03T12:00:35.133Z,124736.00
2019-05-03T12:01:35.780Z,123936.00
2019-05-03T12:02:35.273Z,125088.00
2019-05-03T12:03:35.573Z,124384.00
2019-05-03T12:04:35.494Z,118912.00
2019-05-03T12:05:35.359Z,122496.00
2019-05-03T12:06:36.804Z,124320.00
2019-05-03T12:07:39.521Z,124992.00
2019-05-03T12:08:35.553Z,82272.00
2019-05-03T12:09:35.550Z,22016.00
2019-05-03T12:10:50.052Z,23296.00
2019-05-03T12:11:35.644Z,28640.00
2019-05-03T12:12:35.692Z,68256.00
2019-05-03T12:13:36.002Z,119680.00
2019-05-03T12:15:35.857Z,38336.00
2019-05-03T12:17:11.984Z,26592.00
2019-05-03T12:18:49.293Z,21920.00
2019-05-03T12:19:37.746Z,22784.00
2019-05-03T12:21:37.372Z,30816.00
2019-05-03T12:22:36.794Z,24352.00
2019-05-03T12:23:37.066Z,25664.00
2019-05-03T12:24:37.021Z,27328.00
2019-05-03T12:25:37.048Z,29792.00
2019-05-03T12:26:43.440Z,31904.00
2019-05-03T12:27:36.367Z,26368.00